Time;durP1;ratioP1;P1;durP2;ratioP2;P2;SDS_P1;SDS_P2;PMS_P1;PMS_P2;Temp;Humidity;BMP_temperature;BMP_pressure;BME280_temperature;BME280_humidity;BME280_pressure;Samples;Min_cycle;Max_cycle;Signal;HPM_P1;HPM_P2
2021/04/19 00:00:38;;;;;;;15.07;7.93;;;6.10;99.90;;;;;;5051415;28;20078;-73
2021/04/19 00:03:04;;;;;;;16.77;8.80;;;6.10;99.90;;;;;;5050717;28;20104;-74
2021/04/19 00:05:29;;;;;;;13.88;7.60;;;6.10;99.90;;;;;;5052126;28;20025;-74
2021/04/19 00:07:55;;;;;;;14.60;7.80;;;6.10;99.90;;;;;;5050004;28;20033;-74
2021/04/19 00:10:23;;;;;;;16.88;8.38;;;6.10;99.90;;;;;;5050312;28;20040;-74
2021/04/19 00:12:50;;;;;;;15.73;7.88;;;6.10;99.90;;;;;;5050173;28;20043;-74
2021/04/19 00:15:19;;;;;;;15.27;7.35;;;6.10;99.90;;;;;;5051969;28;20025;-74
2021/04/19 00:17:45;;;;;;;15.23;7.35;;;6.10;99.90;;;;;;5050795;28;20032;-74
2021/04/19 00:20:11;;;;;;;14.85;7.20;;;6.10;99.90;;;;;;5051170;28;20037;-74
2021/04/19 00:22:38;;;;;;;11.40;6.47;;;6.10;99.90;;;;;;5050660;28;20045;-74
2021/04/19 00:25:05;;;;;;;9.40;5.50;;;6.10;99.90;;;;;;5050711;28;20438;-74
2021/04/19 00:27:31;;;;;;;11.82;6.35;;;6.00;99.90;;;;;;5050015;28;20476;-74
2021/04/19 00:29:57;;;;;;;11.18;6.18;;;6.00;99.90;;;;;;5051483;28;20036;-74
2021/04/19 00:32:22;;;;;;;11.45;7.28;;;6.00;99.90;;;;;;5050307;28;20045;-74
2021/04/19 00:34:48;;;;;;;12.95;6.70;;;6.00;99.90;;;;;;5051597;28;20521;-73
2021/04/19 00:37:14;;;;;;;12.25;6.80;;;6.00;99.90;;;;;;5050636;28;20037;-74
2021/04/19 00:39:40;;;;;;;12.18;6.85;;;6.00;99.90;;;;;;5051359;28;20036;-74
2021/04/19 00:42:07;;;;;;;12.23;6.90;;;6.00;99.90;;;;;;5049459;28;20025;-73
2021/04/19 00:44:32;;;;;;;12.23;6.75;;;6.10;99.90;;;;;;5033312;28;20480;-73
2021/04/19 00:46:59;;;;;;;15.35;7.65;;;6.10;99.90;;;;;;5049009;28;20087;-74
2021/04/19 00:49:25;;;;;;;15.30;7.70;;;6.10;99.90;;;;;;5051303;28;20029;-73
2021/04/19 00:51:54;;;;;;;15.15;8.18;;;6.10;99.90;;;;;;5050491;28;20640;-74
2021/04/19 00:54:21;;;;;;;16.17;7.55;;;6.10;99.90;;;;;;5051246;28;20036;-74
2021/04/19 00:56:48;;;;;;;12.48;6.57;;;6.00;99.90;;;;;;5050323;28;20029;-74
2021/04/19 00:59:14;;;;;;;13.13;6.95;;;6.00;99.90;;;;;;5047063;28;20512;-73
2021/04/19 01:01:40;;;;;;;13.13;6.65;;;6.00;99.90;;;;;;5029798;28;20037;-74
2021/04/19 01:04:06;;;;;;;12.48;6.95;;;6.00;99.90;;;;;;5050497;28;20021;-74
2021/04/19 01:06:33;;;;;;;13.00;7.05;;;6.00;99.90;;;;;;5048649;28;20106;-74
2021/04/19 01:08:58;;;;;;;12.13;7.05;;;6.00;99.90;;;;;;5050797;28;20060;-74
2021/04/19 01:11:24;;;;;;;13.65;7.72;;;6.00;99.90;;;;;;5045290;28;20033;-74
2021/04/19 01:13:50;;;;;;;10.48;6.47;;;6.00;99.90;;;;;;5029510;28;20574;-74
2021/04/19 01:16:16;;;;;;;12.93;7.53;;;6.00;99.90;;;;;;5030056;28;20068;-74
2021/04/19 01:18:42;;;;;;;13.18;7.38;;;6.00;99.90;;;;;;5030565;28;20037;-74
2021/04/19 01:21:08;;;;;;;12.98;7.20;;;6.00;99.90;;;;;;5029989;28;20465;-73
2021/04/19 01:23:36;;;;;;;12.73;6.97;;;6.00;99.90;;;;;;5041844;28;20021;-74
2021/04/19 01:26:03;;;;;;;13.90;7.30;;;6.00;99.90;;;;;;5050183;28;20047;-74
2021/04/19 01:28:29;;;;;;;13.10;7.40;;;6.00;99.90;;;;;;5049076;28;20376;-73
2021/04/19 01:30:56;;;;;;;14.32;7.10;;;6.00;99.90;;;;;;5048392;28;20067;-73
2021/04/19 01:33:23;;;;;;;15.88;8.63;;;6.00;99.90;;;;;;5050692;28;20443;-74
2021/04/19 01:35:49;;;;;;;16.45;8.98;;;6.00;99.90;;;;;;5050466;28;20108;-74
2021/04/19 01:38:24;;;;;;;18.13;8.40;;;6.00;99.90;;;;;;5048221;28;20086;-74
2021/04/19 01:40:54;;;;;;;12.40;8.13;;;6.00;99.90;;;;;;5031757;28;20470;-74
2021/04/19 01:43:21;;;;;;;14.85;7.78;;;6.00;99.90;;;;;;5049589;28;20033;-74
2021/04/19 01:45:54;;;;;;;12.98;7.32;;;6.00;99.90;;;;;;5033361;28;20419;-74
2021/04/19 01:48:22;;;;;;;12.88;6.95;;;6.00;99.90;;;;;;5048376;28;20040;-74
2021/04/19 01:50:50;;;;;;;13.25;6.90;;;6.00;99.90;;;;;;5049546;28;20484;-74
2021/04/19 01:53:16;;;;;;;14.40;7.38;;;6.00;99.90;;;;;;5032520;28;20037;-74
2021/04/19 01:55:43;;;;;;;13.40;7.18;;;6.00;99.90;;;;;;5048857;28;20040;-74
2021/04/19 01:58:17;;;;;;;17.13;8.02;;;6.00;99.90;;;;;;5049352;28;20032;-74
2021/04/19 02:00:48;;;;;;;11.95;6.70;;;6.00;99.90;;;;;;5048245;28;20021;-74
2021/04/19 02:03:33;;;;;;;16.35;8.25;;;6.00;99.90;;;;;;5048729;28;20025;-74
2021/04/19 02:06:10;;;;;;;15.35;7.90;;;6.00;99.90;;;;;;5031851;28;20031;-74
2021/04/19 02:08:58;;;;;;;15.25;7.95;;;6.00;99.90;;;;;;5049453;28;20060;-74
2021/04/19 02:11:42;;;;;;;13.32;7.18;;;6.10;99.90;;;;;;5047832;28;20053;-74
2021/04/19 02:14:35;;;;;;;12.38;6.63;;;6.00;99.90;;;;;;5048720;28;20033;-74
2021/04/19 02:17:20;;;;;;;12.13;6.78;;;6.00;99.90;;;;;;5047628;28;20099;-74
2021/04/19 02:20:24;;;;;;;11.45;6.80;;;6.00;99.90;;;;;;5049688;28;20029;-74
2021/04/19 02:22:58;;;;;;;10.88;6.68;;;6.00;99.90;;;;;;5047558;28;20464;-74
2021/04/19 02:25:42;;;;;;;13.57;7.75;;;6.00;99.90;;;;;;5058055;28;20029;-74
2021/04/19 02:28:13;;;;;;;13.23;7.28;;;5.90;99.90;;;;;;5048275;28;20452;-74
2021/04/19 02:30:44;;;;;;;10.52;6.05;;;5.90;99.90;;;;;;5064477;28;20109;-74
2021/04/19 02:33:16;;;;;;;10.40;6.05;;;5.90;99.90;;;;;;5049653;28;20812;-74
2021/04/19 02:35:45;;;;;;;11.00;6.32;;;5.90;99.90;;;;;;5048231;28;20029;-74
2021/04/19 02:38:16;;;;;;;9.02;5.80;;;5.90;99.90;;;;;;5049221;28;20095;-73
2021/04/19 02:40:44;;;;;;;13.05;5.93;;;5.90;99.90;;;;;;5047890;28;20535;-74
2021/04/19 02:43:11;;;;;;;9.63;6.32;;;5.90;99.90;;;;;;5048396;28;20407;-74
2021/04/19 02:45:42;;;;;;;10.38;6.10;;;5.90;99.90;;;;;;5049371;28;20041;-74
2021/04/19 02:48:14;;;;;;;9.68;6.10;;;5.90;99.90;;;;;;5047822;28;20037;-73
2021/04/19 02:50:50;;;;;;;10.50;6.03;;;5.90;99.90;;;;;;5047707;28;20090;-74
2021/04/19 02:53:19;;;;;;;11.88;6.57;;;5.90;99.90;;;;;;5049663;28;20044;-73
2021/04/19 02:55:45;;;;;;;10.18;5.93;;;5.90;99.90;;;;;;5052949;28;20424;-73
2021/04/19 02:58:12;;;;;;;10.45;6.25;;;5.90;99.90;;;;;;5037179;28;20052;-74
2021/04/19 03:00:47;;;;;;;12.40;7.25;;;5.90;99.90;;;;;;5031602;28;20392;-73
2021/04/19 03:03:20;;;;;;;12.55;7.10;;;5.90;99.90;;;;;;5048565;28;20112;-73
2021/04/19 03:05:47;;;;;;;12.48;7.10;;;5.80;99.90;;;;;;5048322;28;20535;-73
2021/04/19 03:08:20;;;;;;;10.75;6.40;;;5.90;99.90;;;;;;5032603;28;20034;-74
2021/04/19 03:10:55;;;;;;;11.23;6.78;;;5.80;99.90;;;;;;5060471;28;20384;-73
2021/04/19 03:13:25;;;;;;;12.13;6.78;;;5.80;99.90;;;;;;5051997;28;20040;-74
2021/04/19 03:15:55;;;;;;;14.55;8.15;;;5.80;99.90;;;;;;5035457;28;20544;-74
2021/04/19 03:18:23;;;;;;;11.98;7.32;;;5.80;99.90;;;;;;5051016;28;20037;-74
2021/04/19 03:21:08;;;;;;;10.25;5.80;;;5.90;99.90;;;;;;5050786;28;20052;-73
2021/04/19 03:23:43;;;;;;;11.30;6.85;;;5.80;99.90;;;;;;5051701;28;20510;-73
2021/04/19 03:26:11;;;;;;;10.93;6.68;;;5.80;99.90;;;;;;5050524;28;20400;-74
2021/04/19 03:28:40;;;;;;;15.95;8.15;;;5.80;99.90;;;;;;5049665;28;20507;-74
2021/04/19 03:31:22;;;;;;;15.02;8.30;;;5.80;99.90;;;;;;5050465;28;20060;-73
2021/04/19 03:33:51;;;;;;;15.48;8.25;;;5.80;99.90;;;;;;5051257;28;20029;-73
2021/04/19 03:36:20;;;;;;;16.42;8.13;;;5.80;99.90;;;;;;5050769;28;20037;-74
2021/04/19 03:38:48;;;;;;;16.73;8.82;;;5.80;99.90;;;;;;5051267;28;20115;-74
2021/04/19 03:41:17;;;;;;;15.85;8.02;;;5.80;99.90;;;;;;5050517;28;20037;-73
2021/04/19 03:43:52;;;;;;;15.65;8.85;;;5.80;99.90;;;;;;5034463;28;20052;-73
2021/04/19 03:46:20;;;;;;;;;;;5.80;99.90;;;;;;5067751;28;20025;-74
2021/04/19 03:49:12;;;;;;;13.88;8.35;;;5.80;99.90;;;;;;5052204;28;20322;-73
2021/04/19 03:51:54;;;;;;;14.95;8.18;;;5.80;99.90;;;;;;5050406;28;20043;-73
2021/04/19 03:54:20;;;;;;;15.85;7.68;;;5.80;99.90;;;;;;5051155;28;20124;-73
2021/04/19 03:56:47;;;;;;;15.93;8.20;;;5.80;99.90;;;;;;5051564;28;20104;-73
2021/04/19 03:59:22;;;;;;;;;;;5.80;99.90;;;;;;5051446;28;20037;-73
2021/04/19 04:02:03;;;;;;;15.00;8.05;;;5.80;99.90;;;;;;5050197;28;20346;-74
2021/04/19 04:04:36;;;;;;;;;;;5.80;99.90;;;;;;5051111;28;20606;-73
2021/04/19 04:07:07;;;;;;;12.23;7.15;;;5.80;99.90;;;;;;5050629;28;20403;-73
2021/04/19 04:09:38;;;;;;;15.43;7.88;;;5.80;99.90;;;;;;5051897;28;20029;-73
2021/04/19 04:12:05;;;;;;;12.98;7.13;;;5.80;99.90;;;;;;5051188;28;20035;-73
2021/04/19 04:14:36;;;;;;;14.15;7.32;;;5.80;99.90;;;;;;5050580;28;20040;-73
2021/04/19 04:17:03;;;;;;;14.43;7.75;;;5.80;99.90;;;;;;5049673;28;20037;-73
2021/04/19 04:19:49;;;;;;;16.95;8.10;;;5.80;99.90;;;;;;5050536;28;20025;-73
2021/04/19 04:22:16;;;;;;;15.18;8.65;;;5.80;99.90;;;;;;5049855;28;20033;-73
2021/04/19 04:24:45;;;;;;;16.00;7.78;;;5.80;99.90;;;;;;5049911;28;20017;-73
2021/04/19 04:27:12;;;;;;;15.93;8.48;;;5.80;99.90;;;;;;5048721;28;20029;-73
2021/04/19 04:29:42;;;;;;;15.25;8.55;;;5.80;99.90;;;;;;5050282;28;20499;-73
2021/04/19 04:32:33;;;;;;;16.63;7.63;;;5.80;99.90;;;;;;5051414;28;20515;-73
2021/04/19 04:35:12;;;;;;;16.15;7.60;;;5.80;99.90;;;;;;5046235;28;20044;-73
2021/04/19 04:37:40;;;;;;;14.23;7.30;;;5.80;99.90;;;;;;5049358;28;20504;-73
2021/04/19 04:40:16;;;;;;;16.35;8.20;;;5.80;99.90;;;;;;5034358;28;20048;-73
2021/04/19 04:42:47;;;;;;;14.25;8.10;;;5.80;99.90;;;;;;5049137;28;20061;-73
2021/04/19 04:45:13;;;;;;;12.15;7.57;;;5.80;99.90;;;;;;5051124;28;20040;-73
2021/04/19 04:47:48;;;;;;;13.95;7.82;;;5.80;99.90;;;;;;5032709;28;20025;-73
2021/04/19 04:50:18;;;;;;;15.63;7.85;;;5.90;99.90;;;;;;5049915;28;20057;-73
2021/04/19 04:52:55;;;;;;;11.15;6.45;;;5.80;99.90;;;;;;5049465;28;20032;-74
2021/04/19 04:55:23;;;;;;;16.20;8.05;;;5.80;99.90;;;;;;5051208;28;20029;-73
2021/04/19 04:57:49;;;;;;;13.32;6.57;;;5.80;99.90;;;;;;5050479;28;20549;-73
2021/04/19 05:00:18;;;;;;;11.65;7.45;;;5.90;99.90;;;;;;5051071;28;20039;-73
2021/04/19 05:02:46;;;;;;;12.57;6.95;;;5.90;99.90;;;;;;5049965;28;20040;-74
2021/04/19 05:05:14;;;;;;;12.07;6.63;;;5.90;99.90;;;;;;5050553;28;20625;-73
2021/04/19 05:07:41;;;;;;;11.07;6.05;;;5.90;99.90;;;;;;5037519;28;20041;-73
2021/04/19 05:10:08;;;;;;;11.27;6.22;;;5.90;99.90;;;;;;5037976;28;20040;-73
2021/04/19 05:12:34;;;;;;;9.77;5.70;;;5.90;99.90;;;;;;5049972;28;20024;-74
2021/04/19 05:15:03;;;;;;;9.50;6.25;;;6.00;99.90;;;;;;5050876;28;20039;-73
2021/04/19 05:17:29;;;;;;;9.68;5.30;;;6.00;99.90;;;;;;5048439;28;20047;-73
2021/04/19 05:19:54;;;;;;;8.80;5.93;;;6.00;99.90;;;;;;5049453;28;20045;-73
2021/04/19 05:22:20;;;;;;;10.35;6.20;;;6.00;99.90;;;;;;5050010;28;20033;-73
2021/04/19 05:24:47;;;;;;;11.90;6.47;;;6.00;99.90;;;;;;5050749;28;20056;-73
2021/04/19 05:27:13;;;;;;;10.70;6.25;;;6.00;99.90;;;;;;5048482;28;20044;-73
2021/04/19 05:29:41;;;;;;;10.85;5.93;;;6.10;99.90;;;;;;5050347;28;20061;-73
2021/04/19 05:32:08;;;;;;;11.68;6.18;;;6.10;99.90;;;;;;5049237;28;20036;-73
2021/04/19 05:34:37;;;;;;;14.02;6.78;;;6.10;99.90;;;;;;5050551;28;20125;-73
2021/04/19 05:37:04;;;;;;;12.77;6.70;;;6.20;99.90;;;;;;5049783;28;20033;-73
2021/04/19 05:39:34;;;;;;;13.27;6.68;;;6.10;99.90;;;;;;5050408;28;20103;-73
2021/04/19 05:42:04;;;;;;;11.32;6.07;;;6.20;99.90;;;;;;5049520;28;20029;-74
2021/04/19 05:44:30;;;;;;;13.23;7.35;;;6.20;99.90;;;;;;5050495;28;20104;-73
2021/04/19 05:46:57;;;;;;;15.38;7.45;;;6.20;99.90;;;;;;5049536;28;20032;-73
2021/04/19 05:49:23;;;;;;;12.15;6.43;;;6.20;99.90;;;;;;5049988;28;20483;-73
2021/04/19 05:51:49;;;;;;;9.88;6.32;;;6.30;99.90;;;;;;5048030;28;20044;-74
2021/04/19 05:54:17;;;;;;;12.90;7.25;;;6.30;99.90;;;;;;5049921;28;20025;-74
2021/04/19 05:57:15;;;;;;;16.42;7.90;;;6.30;99.90;;;;;;5049140;28;20518;-74
2021/04/19 06:00:05;;;;;;;19.92;9.73;;;6.30;99.90;;;;;;5046680;28;20025;-74
2021/04/19 06:03:01;;;;;;;16.45;8.63;;;6.40;99.90;;;;;;5045109;28;20032;-73
2021/04/19 06:05:53;;;;;;;20.42;9.73;;;6.40;99.90;;;;;;5049294;28;20028;-73
2021/04/19 06:08:27;;;;;;;20.25;9.73;;;6.40;99.90;;;;;;5048229;28;20033;-73
2021/04/19 06:11:22;;;;;;;17.77;9.02;;;6.50;99.90;;;;;;5047635;28;20112;-73
2021/04/19 06:14:09;;;;;;;19.88;9.25;;;6.50;99.90;;;;;;5034620;28;20029;-73
2021/04/19 06:16:38;;;;;;;19.30;8.80;;;6.50;99.90;;;;;;5048579;28;20044;-73
2021/04/19 06:19:10;;;;;;;17.58;9.43;;;6.60;99.90;;;;;;5048190;28;20033;-73
2021/04/19 06:21:37;;;;;;;21.23;9.43;;;6.60;99.90;;;;;;5052516;28;20030;-73
2021/04/19 06:24:05;;;;;;;17.73;9.60;;;6.70;99.90;;;;;;5045716;28;20026;-73
2021/04/19 06:26:33;;;;;;;22.52;10.43;;;6.70;99.90;;;;;;5049097;28;20040;-73
2021/04/19 06:28:59;;;;;;;21.02;10.23;;;6.90;99.90;;;;;;5050077;28;20064;-74
2021/04/19 06:31:25;;;;;;;18.30;9.23;;;6.90;99.90;;;;;;5050191;28;20423;-73
2021/04/19 06:34:11;;;;;;;17.65;9.23;;;6.90;99.90;;;;;;5047907;28;20032;-73
2021/04/19 06:36:40;;;;;;;20.77;11.35;;;6.90;99.90;;;;;;5043978;28;20033;-74
2021/04/19 06:39:08;;;;;;;22.60;10.52;;;6.90;99.90;;;;;;5052590;28;20102;-74
2021/04/19 06:41:34;;;;;;;22.50;10.25;;;6.90;99.90;;;;;;5049635;28;20031;-74
2021/04/19 06:44:00;;;;;;;21.75;10.57;;;6.90;99.90;;;;;;5051517;28;20069;-73
2021/04/19 06:46:34;;;;;;;25.08;11.52;;;6.90;99.90;;;;;;5051984;28;20021;-73
2021/04/19 06:49:01;;;;;;;25.60;11.98;;;6.90;99.90;;;;;;5051527;28;20608;-73
2021/04/19 06:51:28;;;;;;;26.77;12.50;;;6.90;99.90;;;;;;5052255;28;20025;-73
2021/04/19 06:53:54;;;;;;;27.95;12.20;;;6.90;99.90;;;;;;5052998;28;20037;-73
2021/04/19 06:56:24;;;;;;;29.48;12.55;;;6.90;99.90;;;;;;5051169;28;20563;-73
2021/04/19 06:58:55;;;;;;;31.50;12.40;;;7.00;99.90;;;;;;5052897;28;20412;-73
2021/04/19 07:01:24;;;;;;;26.85;10.90;;;7.00;99.90;;;;;;5050434;28;20033;-73
2021/04/19 07:03:55;;;;;;;22.05;10.85;;;6.90;99.90;;;;;;5049539;28;20025;-73
2021/04/19 07:06:26;;;;;;;18.13;9.35;;;6.90;99.90;;;;;;5047705;28;20472;-73
2021/04/19 07:09:00;;;;;;;26.67;10.55;;;6.90;99.90;;;;;;5049037;28;20048;-73
2021/04/19 07:11:28;;;;;;;21.58;10.52;;;6.90;99.90;;;;;;5049157;28;20040;-73
2021/04/19 07:13:54;;;;;;;22.13;9.90;;;7.00;99.90;;;;;;5045373;28;20565;-74
2021/04/19 07:16:20;;;;;;;21.98;10.57;;;7.00;99.90;;;;;;5049851;28;20122;-73
2021/04/19 07:18:46;;;;;;;19.77;9.90;;;7.00;99.90;;;;;;5051591;28;20487;-73
2021/04/19 07:21:12;;;;;;;23.25;10.32;;;7.00;99.90;;;;;;5048436;28;20040;-73
2021/04/19 07:23:39;;;;;;;20.85;10.05;;;7.10;99.90;;;;;;5052422;28;20033;-73
2021/04/19 07:26:05;;;;;;;18.80;9.02;;;7.10;99.90;;;;;;5048298;28;20021;-73
2021/04/19 07:28:36;;;;;;;18.73;8.90;;;7.20;99.90;;;;;;5051971;28;20544;-76
2021/04/19 07:31:04;;;;;;;24.50;11.13;;;7.20;99.90;;;;;;5045501;28;20094;-74
2021/04/19 07:33:33;;;;;;;19.77;8.88;;;7.40;99.90;;;;;;5050208;28;20131;-74
2021/04/19 07:36:18;;;;;;;20.63;9.90;;;7.40;99.90;;;;;;5051388;28;20035;-74
2021/04/19 07:38:44;;;;;;;21.88;10.60;;;7.50;99.90;;;;;;5048564;28;20033;-74
2021/04/19 07:41:10;;;;;;;19.13;10.07;;;7.70;99.90;;;;;;5048042;28;20067;-73
2021/04/19 07:43:37;;;;;;;19.38;9.38;;;7.70;99.90;;;;;;5052168;28;20107;-73
2021/04/19 07:46:15;;;;;;;24.15;11.23;;;7.80;99.90;;;;;;5052136;28;20439;-74
2021/04/19 07:48:51;;;;;;;24.92;10.32;;;7.90;99.90;;;;;;5051241;28;20044;-74
2021/04/19 07:51:37;;;;;;;18.17;10.07;;;7.90;99.90;;;;;;5050291;28;20029;-74
2021/04/19 07:54:23;;;;;;;23.50;10.52;;;8.00;99.90;;;;;;5051150;28;20049;-73
2021/04/19 07:56:52;;;;;;;23.45;10.77;;;8.10;99.90;;;;;;5051786;28;20484;-74
2021/04/19 07:59:25;;;;;;;18.73;9.00;;;8.10;99.90;;;;;;5049225;28;20033;-74
2021/04/19 08:02:19;;;;;;;25.50;11.30;;;8.30;99.90;;;;;;5067067;28;20017;-75
2021/04/19 08:04:54;;;;;;;21.60;10.23;;;8.40;99.90;;;;;;5034369;28;20037;-74
2021/04/19 08:07:28;;;;;;;20.55;10.68;;;8.40;99.90;;;;;;5051507;28;20079;-75
2021/04/19 08:10:01;;;;;;;23.50;10.18;;;8.40;99.90;;;;;;5051662;28;20029;-74
2021/04/19 08:12:37;;;;;;;19.80;10.35;;;8.40;99.90;;;;;;5051181;28;20095;-74
2021/04/19 08:15:09;;;;;;;22.55;9.55;;;8.40;99.90;;;;;;5050818;28;20056;-73
2021/04/19 08:17:35;;;;;;;18.58;9.80;;;8.40;99.90;;;;;;5046715;28;20042;-74
2021/04/19 08:20:09;;;;;;;14.90;8.73;;;8.50;99.90;;;;;;5046552;28;20114;-74
2021/04/19 08:22:35;;;;;;;20.00;9.13;;;8.50;99.90;;;;;;5047051;28;20025;-74
2021/04/19 08:25:19;;;;;;;15.63;8.32;;;8.50;99.90;;;;;;5049585;28;20536;-74
2021/04/19 08:28:01;;;;;;;18.55;8.15;;;8.60;99.90;;;;;;5049919;28;20040;-74
2021/04/19 08:30:27;;;;;;;17.30;9.10;;;8.50;99.90;;;;;;5049292;28;20105;-74
2021/04/19 08:32:56;;;;;;;19.67;8.27;;;8.60;99.90;;;;;;5051223;28;20040;-74
2021/04/19 08:35:23;;;;;;;17.55;8.98;;;8.60;99.90;;;;;;5051437;28;20086;-74
2021/04/19 08:37:49;;;;;;;19.13;9.15;;;8.50;99.90;;;;;;5050837;28;20519;-74
2021/04/19 08:40:17;;;;;;;20.63;9.07;;;8.50;99.90;;;;;;5050927;28;20032;-74
2021/04/19 08:42:43;;;;;;;18.23;8.45;;;8.60;99.90;;;;;;5050789;28;20442;-73
2021/04/19 08:45:09;;;;;;;18.65;8.65;;;8.60;99.90;;;;;;5051397;28;20025;-74
2021/04/19 08:47:35;;;;;;;17.85;8.77;;;8.60;99.90;;;;;;5050529;28;20025;-74
2021/04/19 08:50:04;;;;;;;17.75;8.93;;;8.50;99.90;;;;;;5051224;28;20045;-74
2021/04/19 08:52:30;;;;;;;16.98;8.80;;;8.60;99.90;;;;;;5050214;28;20110;-74
2021/04/19 08:54:56;;;;;;;18.98;8.48;;;8.60;99.90;;;;;;5051056;28;20037;-74
2021/04/19 08:57:23;;;;;;;17.73;8.10;;;8.60;99.90;;;;;;5050105;28;20466;-74
2021/04/19 08:59:51;;;;;;;17.63;8.60;;;8.70;99.90;;;;;;5050866;28;20403;-74
2021/04/19 09:02:18;;;;;;;16.52;8.30;;;8.80;99.90;;;;;;5049150;28;20029;-73
2021/04/19 09:05:06;;;;;;;18.52;8.90;;;8.90;99.90;;;;;;5050753;28;20434;-74
2021/04/19 09:07:34;;;;;;;16.85;7.95;;;9.00;99.90;;;;;;5050298;28;20434;-74
2021/04/19 09:10:00;;;;;;;17.73;8.07;;;9.10;99.90;;;;;;5049190;28;20132;-74
2021/04/19 09:12:29;;;;;;;15.75;8.07;;;9.20;99.90;;;;;;5049948;28;20029;-74
2021/04/19 09:15:18;;;;;;;16.42;7.95;;;9.30;99.90;;;;;;5050139;28;20033;-73
2021/04/19 09:18:08;;;;;;;16.30;8.65;;;9.40;99.90;;;;;;5046762;28;20387;-74
2021/04/19 09:20:55;;;;;;;23.60;10.77;;;9.40;99.90;;;;;;5048235;28;20029;-74
2021/04/19 09:23:26;;;;;;;16.00;8.65;;;9.50;99.90;;;;;;5048638;28;20442;-74
2021/04/19 09:25:53;;;;;;;19.85;9.25;;;9.50;99.90;;;;;;5047859;28;20483;-74
2021/04/19 09:28:39;;;;;;;17.67;9.45;;;9.50;99.90;;;;;;5046385;28;20024;-74
2021/04/19 09:31:09;;;;;;;15.00;8.52;;;9.50;99.90;;;;;;5039924;28;20128;-74
2021/04/19 09:33:36;;;;;;;18.77;8.50;;;9.40;99.90;;;;;;5043799;28;20022;-74
2021/04/19 09:36:03;;;;;;;18.50;8.73;;;9.50;99.90;;;;;;5043266;28;20024;-76
2021/04/19 09:38:34;;;;;;;16.73;8.82;;;9.60;99.90;;;;;;5039895;28;20115;-75
2021/04/19 09:41:05;;;;;;;16.23;8.45;;;9.80;99.90;;;;;;5044340;28;20056;-75
2021/04/19 09:43:43;;;;;;;17.40;9.45;;;9.90;99.90;;;;;;5039547;28;20021;-75
2021/04/19 09:46:20;;;;;;;15.95;8.55;;;10.00;99.90;;;;;;5046407;28;20087;-75
2021/04/19 09:48:52;;;;;;;15.57;8.38;;;10.00;99.90;;;;;;5044014;28;20017;-74
2021/04/19 09:51:24;;;;;;;17.80;9.35;;;10.10;99.90;;;;;;5044876;28;20128;-74
2021/04/19 09:53:59;;;;;;;17.00;8.35;;;10.10;99.90;;;;;;5048434;28;20040;-74
2021/04/19 09:56:31;;;;;;;19.17;9.27;;;10.00;99.90;;;;;;5047073;28;20442;-74
2021/04/19 09:58:58;;;;;;;16.23;8.70;;;10.10;99.90;;;;;;5047518;28;20033;-74
2021/04/19 10:01:25;;;;;;;15.60;7.75;;;9.90;99.90;;;;;;5045491;28;20029;-74
2021/04/19 10:03:53;;;;;;;16.25;8.55;;;9.80;99.90;;;;;;5044572;28;20568;-74
2021/04/19 10:06:22;;;;;;;15.15;8.32;;;9.80;99.90;;;;;;5048330;28;20104;-75
2021/04/19 10:08:49;;;;;;;18.52;9.10;;;9.70;99.90;;;;;;5040511;28;20138;-75
2021/04/19 10:11:21;;;;;;;16.10;8.10;;;9.60;99.90;;;;;;5043484;28;20516;-75
2021/04/19 10:13:47;;;;;;;15.10;8.30;;;9.60;99.90;;;;;;5045253;28;20029;-74
2021/04/19 10:16:14;;;;;;;16.17;8.57;;;9.50;99.90;;;;;;5045534;28;20044;-74
2021/04/19 10:18:42;;;;;;;16.63;8.43;;;9.40;99.90;;;;;;5043791;28;20097;-74
2021/04/19 10:21:21;;;;;;;16.05;8.25;;;9.40;99.90;;;;;;5060492;28;20075;-74
2021/04/19 10:23:47;;;;;;;15.13;8.90;;;9.40;99.90;;;;;;5044733;28;20419;-74
2021/04/19 10:26:13;;;;;;;16.15;7.88;;;9.40;99.90;;;;;;5044650;28;20021;-75
2021/04/19 10:28:44;;;;;;;16.02;7.85;;;9.40;99.90;;;;;;5041791;28;20068;-75
2021/04/19 10:31:21;;;;;;;17.35;8.50;;;9.50;99.90;;;;;;5048777;28;20147;-75
2021/04/19 10:33:55;;;;;;;18.35;8.50;;;9.60;99.90;;;;;;5045918;28;20055;-75
2021/04/19 10:36:24;;;;;;;21.37;9.47;;;9.70;99.90;;;;;;5048846;28;20072;-75
2021/04/19 10:38:52;;;;;;;21.50;10.55;;;9.90;99.90;;;;;;5049805;28;20353;-75
2021/04/19 10:41:34;;;;;;;19.52;9.88;;;10.10;99.90;;;;;;5049109;28;20040;-75
2021/04/19 10:44:01;;;;;;;17.95;10.45;;;10.30;99.90;;;;;;5036767;28;20631;-75
2021/04/19 10:46:33;;;;;;;20.27;10.82;;;10.50;99.90;;;;;;5044884;28;20025;-75
2021/04/19 10:49:00;;;;;;;21.05;11.02;;;10.70;99.90;;;;;;5045942;28;20542;-75
2021/04/19 10:51:29;;;;;;;21.20;10.85;;;10.80;99.90;;;;;;5045196;28;20041;-75
2021/04/19 10:53:59;;;;;;;22.92;11.27;;;11.00;99.90;;;;;;5028108;28;20471;-75
2021/04/19 10:56:25;;;;;;;21.05;11.70;;;11.00;99.90;;;;;;5044902;28;20044;-76
2021/04/19 10:59:00;;;;;;;21.27;11.43;;;11.00;99.90;;;;;;5046068;28;20029;-75
2021/04/19 11:01:32;;;;;;;25.13;12.98;;;11.20;99.90;;;;;;5027695;28;20083;-75
2021/04/19 11:03:59;;;;;;;27.17;13.10;;;11.50;99.90;;;;;;5045146;28;20049;-75
2021/04/19 11:06:25;;;;;;;27.05;14.02;;;11.60;99.90;;;;;;5043882;28;20033;-75
2021/04/19 11:08:58;;;;;;;27.42;14.13;;;11.70;99.90;;;;;;5045831;28;20041;-75
2021/04/19 11:11:42;;;;;;;25.90;14.32;;;11.80;99.90;;;;;;5042881;28;20094;-75
2021/04/19 11:14:13;;;;;;;25.95;14.40;;;11.90;99.90;;;;;;5043913;28;20123;-75
2021/04/19 11:17:03;;;;;;;26.90;13.80;;;11.90;99.90;;;;;;5045390;28;20124;-75
2021/04/19 11:19:42;;;;;;;26.08;14.23;;;12.00;99.90;;;;;;5040891;28;20403;-75
2021/04/19 11:22:34;;;;;;;23.67;13.25;;;11.70;99.90;;;;;;5048073;28;20021;-75
2021/04/19 11:25:20;;;;;;;28.02;14.07;;;11.60;99.90;;;;;;5047571;28;20215;-75
2021/04/19 11:27:48;;;;;;;28.30;13.68;;;11.70;99.90;;;;;;5058604;28;20029;-75
2021/04/19 11:30:26;;;;;;;22.25;13.25;;;11.60;99.90;;;;;;5030713;28;20113;-76
2021/04/19 11:33:02;;;;;;;25.38;13.75;;;11.80;99.90;;;;;;5048630;28;20032;-75
2021/04/19 11:35:37;;;;;;;24.85;12.63;;;12.00;99.90;;;;;;5046933;28;20078;-75
2021/04/19 11:38:05;;;;;;;20.70;11.90;;;12.20;99.90;;;;;;5036948;28;20029;-75
2021/04/19 11:40:39;;;;;;;22.45;12.10;;;12.30;99.90;;;;;;5038562;28;20508;-76
2021/04/19 11:43:21;;;;;;;22.48;12.52;;;12.50;99.90;;;;;;5043502;28;20074;-75
2021/04/19 11:45:54;;;;;;;20.88;11.35;;;12.60;99.90;;;;;;5041547;28;20037;-75
2021/04/19 11:48:19;;;;;;;18.60;10.30;;;12.70;99.90;;;;;;5042481;28;20074;-74
2021/04/19 11:50:45;;;;;;;21.83;13.00;;;12.80;99.90;;;;;;5042008;28;20029;-74
2021/04/19 11:53:19;;;;;;;24.38;12.90;;;12.90;99.90;;;;;;5040649;28;20435;-75
2021/04/19 11:55:45;;;;;;;28.33;15.02;;;12.90;99.90;;;;;;5041790;28;20028;-75
2021/04/19 11:58:11;;;;;;;24.65;14.13;;;12.80;99.90;;;;;;5043533;28;20024;-74
2021/04/19 12:00:36;;;;;;;25.33;14.30;;;12.50;99.90;;;;;;5044344;28;20075;-74
2021/04/19 12:03:02;;;;;;;25.15;13.73;;;12.40;99.90;;;;;;5044226;28;20037;-74
2021/04/19 12:05:28;;;;;;;21.23;12.50;;;12.30;99.90;;;;;;5039586;28;20025;-74
2021/04/19 12:07:53;;;;;;;23.33;13.98;;;12.30;99.90;;;;;;5040515;28;20435;-74
2021/04/19 12:10:19;;;;;;;25.45;13.82;;;12.20;99.90;;;;;;5042485;28;20459;-74
2021/04/19 12:12:46;;;;;;;20.95;12.52;;;12.20;99.90;;;;;;5037848;28;20120;-74
2021/04/19 12:15:13;;;;;;;24.23;13.10;;;12.10;99.90;;;;;;5045648;28;20029;-74
2021/04/19 12:17:38;;;;;;;22.52;13.70;;;12.10;99.90;;;;;;5044904;28;20673;-74
2021/04/19 12:20:05;;;;;;;20.15;11.82;;;12.10;99.90;;;;;;5046128;28;20029;-74
2021/04/19 12:22:30;;;;;;;24.00;13.35;;;12.00;99.90;;;;;;5047529;28;20033;-74
2021/04/19 12:24:56;;;;;;;23.20;12.65;;;11.90;99.90;;;;;;5046747;28;20040;-74
2021/04/19 12:27:23;;;;;;;25.50;14.23;;;11.80;99.90;;;;;;5043480;28;20399;-74
2021/04/19 12:29:49;;;;;;;23.52;12.77;;;11.70;99.90;;;;;;5042350;28;20112;-74
2021/04/19 12:32:15;;;;;;;23.52;12.65;;;11.70;99.90;;;;;;5041249;28;20587;-74
2021/04/19 12:34:41;;;;;;;22.00;12.90;;;11.60;99.90;;;;;;5045908;28;20037;-74
2021/04/19 12:37:06;;;;;;;24.55;12.88;;;11.70;99.90;;;;;;5043868;28;20033;-74
2021/04/19 12:39:32;;;;;;;21.67;12.57;;;11.80;99.90;;;;;;5044328;28;20508;-74
2021/04/19 12:41:58;;;;;;;23.77;13.73;;;12.00;99.90;;;;;;5043169;28;20488;-74
2021/04/19 12:44:24;;;;;;;22.45;12.52;;;12.10;99.90;;;;;;5045351;28;20041;-74
2021/04/19 12:46:51;;;;;;;23.33;14.00;;;12.10;99.90;;;;;;5043714;28;20179;-73
2021/04/19 12:49:19;;;;;;;24.65;13.80;;;12.20;99.90;;;;;;5046547;28;20040;-74
2021/04/19 12:51:46;;;;;;;22.52;12.43;;;12.20;99.90;;;;;;5046065;28;20479;-74
2021/04/19 12:54:12;;;;;;;22.83;12.90;;;12.20;99.90;;;;;;5044414;28;20182;-74
2021/04/19 12:56:38;;;;;;;23.42;12.65;;;12.30;99.90;;;;;;5045045;28;20399;-74
2021/04/19 12:59:04;;;;;;;22.42;12.68;;;12.30;99.90;;;;;;5046541;28;20029;-74
2021/04/19 13:01:29;;;;;;;20.40;11.80;;;12.40;99.90;;;;;;5046425;28;20051;-74